Time;durP1;ratioP1;P1;durP2;ratioP2;P2;SDS_P1;SDS_P2;PMS_P1;PMS_P2;Temp;Humidity;BMP_temperature;BMP_pressure;BME280_temperature;BME280_humidity;BME280_pressure;Samples;Min_cycle;Max_cycle;Signal;HPM_P1;HPM_P2
2021/07/20 00:01:03;;;;;;;77.10;49.13;;;15.20;99.90;;;;;;4376939;32;20172;-61
2021/07/20 00:03:30;;;;;;;84.13;55.57;;;15.20;99.90;;;;;;4372299;32;20156;-60
2021/07/20 00:05:57;;;;;;;106.47;72.10;;;15.20;99.90;;;;;;4377589;32;20223;-59
2021/07/20 00:08:24;;;;;;;124.60;78.50;;;15.20;99.90;;;;;;4377925;32;20184;-59
2021/07/20 00:10:53;;;;;;;120.00;74.87;;;15.10;99.90;;;;;;4376341;32;20164;-58
2021/07/20 00:13:21;;;;;;;110.27;73.43;;;15.10;99.90;;;;;;4373999;32;20227;-60
2021/07/20 00:15:50;;;;;;;100.90;58.27;;;15.10;99.90;;;;;;4362413;33;20172;-61
2021/07/20 00:18:23;;;;;;;58.67;36.37;;;15.10;99.90;;;;;;4369799;32;20164;-60
2021/07/20 00:20:50;;;;;;;45.23;28.37;;;15.10;99.90;;;;;;4377335;32;20172;-59
2021/07/20 00:23:20;;;;;;;39.03;23.93;;;15.00;99.90;;;;;;4375603;32;20180;-60
2021/07/20 00:25:49;;;;;;;37.83;23.57;;;15.00;99.90;;;;;;4366572;32;20182;-61
2021/07/20 00:28:16;;;;;;;35.07;21.97;;;15.00;99.90;;;;;;4376954;32;20585;-60
2021/07/20 00:30:42;;;;;;;32.23;19.87;;;14.90;99.90;;;;;;4376819;32;20211;-60
2021/07/20 00:33:09;;;;;;;32.37;20.90;;;14.90;99.90;;;;;;4377199;32;20152;-61
2021/07/20 00:35:37;;;;;;;34.47;20.20;;;14.90;99.90;;;;;;4375680;32;20183;-61
2021/07/20 00:38:04;;;;;;;39.23;22.10;;;14.90;99.90;;;;;;4378691;32;20569;-61
2021/07/20 00:40:33;;;;;;;38.03;25.03;;;14.80;99.90;;;;;;4376997;32;20510;-59
2021/07/20 00:43:00;;;;;;;38.73;26.30;;;14.80;99.90;;;;;;4376993;32;20209;-60
2021/07/20 00:45:29;;;;;;;37.90;24.57;;;14.70;99.90;;;;;;4366328;32;20157;-60
2021/07/20 00:47:56;;;;;;;39.33;23.90;;;14.70;99.90;;;;;;4372884;32;20164;-59
2021/07/20 00:50:25;;;;;;;45.63;27.80;;;14.70;99.90;;;;;;4377018;32;20160;-59
2021/07/20 00:52:54;;;;;;;41.17;26.17;;;14.70;99.90;;;;;;4377740;32;20256;-60
2021/07/20 00:55:22;;;;;;;40.00;26.03;;;14.70;99.90;;;;;;4367908;32;20564;-60
2021/07/20 00:57:52;;;;;;;46.00;27.77;;;14.70;99.90;;;;;;4366202;32;20160;-59
2021/07/20 01:00:21;;;;;;;45.27;30.00;;;14.70;99.90;;;;;;4376793;32;20230;-60
2021/07/20 01:02:51;;;;;;;46.70;30.07;;;14.60;99.90;;;;;;4376433;32;20176;-60
2021/07/20 01:05:20;;;;;;;43.73;28.03;;;14.60;99.90;;;;;;4371751;32;20187;-60
2021/07/20 01:07:51;;;;;;;43.07;27.63;;;14.50;99.90;;;;;;4364676;32;20168;-60
2021/07/20 01:10:22;;;;;;;44.23;28.87;;;14.60;99.90;;;;;;4376602;32;20523;-60
2021/07/20 01:12:50;;;;;;;39.73;25.57;;;14.50;99.90;;;;;;4376374;32;20194;-60
2021/07/20 01:15:20;;;;;;;37.13;23.30;;;14.50;99.90;;;;;;4371016;32;20179;-61
2021/07/20 01:17:47;;;;;;;36.40;22.80;;;14.40;99.90;;;;;;4363471;32;20234;-60
2021/07/20 01:20:17;;;;;;;40.63;24.57;;;14.40;99.90;;;;;;4376363;32;20208;-61
2021/07/20 01:22:52;;;;;;;46.17;29.53;;;14.30;99.90;;;;;;4376743;32;20190;-61
2021/07/20 01:25:21;;;;;;;55.27;33.97;;;14.30;99.90;;;;;;4373231;32;20215;-60
2021/07/20 01:27:52;;;;;;;54.70;32.47;;;14.30;99.90;;;;;;4375692;32;20153;-60
2021/07/20 01:30:19;;;;;;;50.83;31.60;;;14.20;99.90;;;;;;4376232;32;20172;-61
2021/07/20 01:32:48;;;;;;;59.20;31.67;;;14.20;99.90;;;;;;4376080;32;20224;-60
2021/07/20 01:35:16;;;;;;;50.10;29.93;;;14.20;99.90;;;;;;4375201;32;20209;-60
2021/07/20 01:37:44;;;;;;;43.33;26.70;;;14.20;99.90;;;;;;4372712;32;20203;-59
2021/07/20 01:40:13;;;;;;;36.77;22.43;;;14.20;99.90;;;;;;4376290;32;20179;-61
2021/07/20 01:42:44;;;;;;;40.93;22.23;;;14.10;99.90;;;;;;4375717;32;20161;-61
2021/07/20 01:45:12;;;;;;;35.10;21.00;;;14.10;99.90;;;;;;4374227;32;20251;-60
2021/07/20 01:47:42;;;;;;;34.80;19.83;;;14.10;99.90;;;;;;4368793;32;20157;-61
2021/07/20 01:50:11;;;;;;;31.00;18.57;;;14.00;99.90;;;;;;4374183;32;20579;-61
2021/07/20 01:52:38;;;;;;;29.53;16.60;;;14.00;99.90;;;;;;4362079;32;20183;-60
2021/07/20 01:55:06;;;;;;;24.40;13.20;;;14.00;99.90;;;;;;4364105;32;20608;-61
2021/07/20 01:57:33;;;;;;;24.17;12.57;;;14.00;99.90;;;;;;4374285;32;20227;-60
2021/07/20 02:00:03;;;;;;;22.63;12.87;;;14.10;99.90;;;;;;4376773;32;20486;-61
2021/07/20 02:02:34;;;;;;;24.00;13.17;;;13.90;99.90;;;;;;4372853;32;20556;-61
2021/07/20 02:10:36;;;;;;;23.80;13.07;;;13.90;99.90;;;;;;4376108;32;20183;-59
2021/07/20 02:13:05;;;;;;;25.97;13.47;;;13.90;99.90;;;;;;4375230;32;20187;-61
2021/07/20 02:15:37;;;;;;;22.67;12.37;;;13.90;99.90;;;;;;4375817;32;20173;-61
2021/07/20 02:18:06;;;;;;;21.70;12.27;;;13.80;99.90;;;;;;4372257;32;20198;-61
2021/07/20 02:20:35;;;;;;;26.57;13.70;;;13.80;99.90;;;;;;4375449;32;20635;-62
2021/07/20 02:23:02;;;;;;;22.63;12.67;;;13.70;99.90;;;;;;4375271;32;20202;-62
2021/07/20 02:25:32;;;;;;;24.87;13.83;;;13.70;99.90;;;;;;4375598;32;20199;-62
2021/07/20 02:27:59;;;;;;;21.80;13.13;;;13.70;99.90;;;;;;4373648;32;20164;-61
2021/07/20 02:30:30;;;;;;;25.30;14.07;;;13.70;99.90;;;;;;4375686;32;20171;-62
2021/07/20 02:33:00;;;;;;;23.07;12.50;;;13.60;99.90;;;;;;4375270;32;20517;-62
2021/07/20 02:35:28;;;;;;;25.63;14.10;;;13.60;99.90;;;;;;4377022;32;20212;-61
2021/07/20 02:37:57;;;;;;;26.63;13.57;;;13.60;99.90;;;;;;4371863;32;20189;-62
2021/07/20 02:40:26;;;;;;;24.27;12.97;;;13.60;99.90;;;;;;4375328;32;20145;-62
2021/07/20 02:42:56;;;;;;;24.43;13.07;;;13.60;99.90;;;;;;4375035;32;20712;-62
2021/07/20 02:45:24;;;;;;;24.03;13.93;;;13.50;99.90;;;;;;4376231;32;20566;-62
2021/07/20 02:47:52;;;;;;;29.30;14.20;;;13.60;99.90;;;;;;4371622;32;20208;-61
2021/07/20 02:50:21;;;;;;;23.77;13.40;;;13.60;99.90;;;;;;4383120;32;20205;-61
2021/07/20 02:52:50;;;;;;;19.87;12.27;;;13.50;99.90;;;;;;4375828;32;20212;-61
2021/07/20 02:55:19;;;;;;;22.63;13.63;;;13.50;99.90;;;;;;4375473;32;20211;-62
2021/07/20 02:57:47;;;;;;;25.00;13.77;;;13.50;99.90;;;;;;4371249;32;20195;-62
2021/07/20 03:00:14;;;;;;;25.97;13.57;;;13.50;99.90;;;;;;4364007;32;20220;-61
2021/07/20 03:02:44;;;;;;;24.23;13.13;;;13.50;99.90;;;;;;4375873;32;20203;-61
2021/07/20 03:05:14;;;;;;;21.87;12.33;;;13.50;99.90;;;;;;4378510;32;20179;-61
2021/07/20 03:07:47;;;;;;;27.23;13.60;;;13.50;99.90;;;;;;4374600;32;20239;-61
2021/07/20 03:10:16;;;;;;;24.10;13.03;;;13.40;99.90;;;;;;4363538;33;20160;-61
2021/07/20 03:12:46;;;;;;;26.03;13.33;;;13.40;99.90;;;;;;4374769;32;20200;-61
2021/07/20 03:15:14;;;;;;;21.97;12.53;;;13.40;99.90;;;;;;4378008;32;20195;-61
2021/07/20 03:17:42;;;;;;;24.80;13.90;;;13.40;99.90;;;;;;4376048;32;20160;-61
2021/07/20 03:20:12;;;;;;;27.37;13.53;;;13.30;99.90;;;;;;4378388;32;20207;-61
2021/07/20 03:22:40;;;;;;;22.57;12.97;;;13.40;99.90;;;;;;4378640;32;20176;-61
2021/07/20 03:25:11;;;;;;;21.60;13.20;;;13.30;99.90;;;;;;4377830;32;20176;-60
2021/07/20 03:27:40;;;;;;;30.07;14.87;;;13.30;99.90;;;;;;4377003;32;20179;-62
2021/07/20 03:30:10;;;;;;;22.13;13.73;;;13.30;99.90;;;;;;4368875;32;20175;-61
2021/07/20 03:32:43;;;;;;;23.67;13.07;;;13.30;99.90;;;;;;4378571;32;20216;-61
2021/07/20 03:35:13;;;;;;;25.33;13.30;;;13.30;99.90;;;;;;4378052;32;20183;-61
2021/07/20 03:37:41;;;;;;;26.07;14.73;;;13.30;99.90;;;;;;4377937;32;20164;-61
2021/07/20 03:40:11;;;;;;;24.30;13.93;;;13.30;99.90;;;;;;4368309;32;20188;-61
2021/07/20 03:42:39;;;;;;;25.03;13.33;;;13.20;99.90;;;;;;4378534;32;20145;-60
2021/07/20 03:45:09;;;;;;;21.40;13.63;;;13.20;99.90;;;;;;4377912;32;20216;-61
2021/07/20 03:47:37;;;;;;;29.47;14.27;;;13.20;99.90;;;;;;4377744;32;20160;-61
2021/07/20 03:50:04;;;;;;;25.27;14.00;;;13.20;99.90;;;;;;4369076;32;20219;-60
2021/07/20 03:52:33;;;;;;;28.17;14.10;;;13.20;99.90;;;;;;4378484;32;20180;-61
2021/07/20 03:55:00;;;;;;;25.03;14.93;;;13.20;99.90;;;;;;4378273;32;20500;-61
2021/07/20 03:57:29;;;;;;;31.87;16.67;;;13.20;99.90;;;;;;4377471;32;20176;-61
2021/07/20 04:00:00;;;;;;;24.87;15.67;;;13.20;99.90;;;;;;4372445;32;20669;-61
2021/07/20 04:02:33;;;;;;;24.90;14.77;;;13.20;99.90;;;;;;4377223;32;20247;-61
2021/07/20 04:05:00;;;;;;;25.43;15.40;;;13.20;99.90;;;;;;4378820;32;20179;-61
2021/07/20 04:07:29;;;;;;;27.53;15.77;;;13.20;99.90;;;;;;4377024;32;20186;-61
2021/07/20 04:09:56;;;;;;;30.10;15.47;;;13.10;99.90;;;;;;4369807;32;20153;-61
2021/07/20 04:12:28;;;;;;;25.47;15.17;;;13.10;99.90;;;;;;4363207;32;20172;-61
2021/07/20 04:14:55;;;;;;;24.70;15.33;;;13.10;99.90;;;;;;4362510;32;20169;-61
2021/07/20 04:17:23;;;;;;;26.77;15.17;;;13.10;99.90;;;;;;4363250;32;20148;-60
2021/07/20 04:19:50;;;;;;;28.17;15.10;;;13.10;99.90;;;;;;4372480;32;20181;-60
2021/07/20 04:22:17;;;;;;;25.93;14.70;;;13.20;99.90;;;;;;4377316;32;20595;-61
2021/07/20 04:24:45;;;;;;;21.33;13.90;;;13.10;99.90;;;;;;4376733;32;20271;-61
2021/07/20 04:27:13;;;;;;;21.77;13.13;;;13.20;99.90;;;;;;4378924;32;20188;-61
2021/07/20 04:29:43;;;;;;;23.70;13.97;;;13.20;99.90;;;;;;4374494;32;20220;-60
2021/07/20 04:32:10;;;;;;;23.07;13.60;;;13.20;99.90;;;;;;4368662;32;20157;-61
2021/07/20 04:34:38;;;;;;;21.13;12.47;;;13.30;99.90;;;;;;4377159;32;20178;-60
2021/07/20 04:37:07;;;;;;;23.37;13.10;;;13.30;99.90;;;;;;4378388;32;20223;-61
2021/07/20 04:39:35;;;;;;;22.37;13.63;;;13.30;99.90;;;;;;4377419;32;20200;-61
2021/07/20 04:42:03;;;;;;;28.90;15.17;;;13.30;99.90;;;;;;4367042;32;20148;-61
2021/07/20 04:44:30;;;;;;;21.67;12.83;;;13.40;99.90;;;;;;4378104;32;20526;-60
2021/07/20 04:46:59;;;;;;;23.57;13.50;;;13.50;99.90;;;;;;4376106;32;20607;-60
2021/07/20 04:49:28;;;;;;;25.27;13.23;;;13.60;99.90;;;;;;4377180;32;20486;-60
2021/07/20 04:51:56;;;;;;;22.57;12.50;;;13.70;99.90;;;;;;4375796;32;20203;-60
2021/07/20 04:54:24;;;;;;;23.70;12.97;;;13.80;99.90;;;;;;4376843;32;20183;-60
2021/07/20 04:56:50;;;;;;;21.33;12.17;;;13.90;99.90;;;;;;4376098;32;20223;-60
2021/07/20 04:59:17;;;;;;;17.83;11.07;;;14.00;99.90;;;;;;4376044;32;20227;-60
2021/07/20 05:01:46;;;;;;;23.13;12.40;;;14.10;99.90;;;;;;4375595;32;20220;-61
2021/07/20 05:04:16;;;;;;;20.97;12.63;;;14.20;99.90;;;;;;4375982;32;20227;-60
2021/07/20 05:06:47;;;;;;;21.87;12.73;;;14.20;99.90;;;;;;4375744;32;20172;-61
2021/07/20 05:09:14;;;;;;;22.67;13.57;;;14.30;99.90;;;;;;4375219;32;20215;-60
2021/07/20 05:11:41;;;;;;;23.10;13.63;;;14.30;99.90;;;;;;4372641;32;20227;-61
2021/07/20 05:14:08;;;;;;;23.87;14.27;;;14.40;99.90;;;;;;4376274;32;20179;-61
2021/07/20 05:16:35;;;;;;;28.50;14.17;;;14.50;99.90;;;;;;4375545;32;20184;-61
2021/07/20 05:19:02;;;;;;;25.80;15.13;;;14.70;99.90;;;;;;4364620;32;20269;-61
2021/07/20 05:21:32;;;;;;;22.97;13.40;;;14.80;99.90;;;;;;4363231;32;20156;-59
2021/07/20 05:24:00;;;;;;;24.83;14.90;;;14.90;99.90;;;;;;4360051;32;20362;-59
2021/07/20 05:26:29;;;;;;;24.60;14.23;;;15.00;99.90;;;;;;4360187;32;20377;-59
2021/07/20 05:29:04;;;;;;;25.73;14.27;;;15.30;99.90;;;;;;4360049;32;20208;-60
2021/07/20 05:31:34;;;;;;;21.53;12.77;;;16.30;99.90;;;;;;4362210;32;20247;-59
2021/07/20 05:34:01;;;;;;;17.60;11.63;;;19.30;99.90;;;;;;4360830;32;20498;-60
2021/07/20 05:36:43;;;;;;;18.23;11.17;;;23.10;99.90;;;;;;4367945;32;20178;-59
2021/07/20 05:39:12;;;;;;;15.13;10.43;;;26.40;97.80;;;;;;4364237;32;20206;-61
2021/07/20 05:41:39;;;;;;;15.00;10.63;;;28.40;92.90;;;;;;4372622;32;20216;-60
2021/07/20 05:44:07;;;;;;;15.47;11.17;;;29.80;88.10;;;;;;4375033;32;20175;-60
2021/07/20 05:46:35;;;;;;;16.53;10.93;;;30.60;80.70;;;;;;4378913;32;20213;-60
2021/07/20 05:49:02;;;;;;;15.93;10.23;;;30.60;75.70;;;;;;4374686;32;20500;-60
2021/07/20 05:51:30;;;;;;;15.90;11.30;;;29.40;76.20;;;;;;4374724;32;20546;-59
2021/07/20 05:53:59;;;;;;;16.67;11.67;;;27.30;79.30;;;;;;4373690;32;20226;-60
2021/07/20 05:56:29;;;;;;;17.70;11.37;;;25.40;85.30;;;;;;4376276;32;20217;-60
2021/07/20 05:59:00;;;;;;;15.10;10.87;;;23.70;89.10;;;;;;4374431;32;20231;-60
2021/07/20 06:01:28;;;;;;;16.50;11.33;;;22.30;92.60;;;;;;4377842;32;20187;-61
2021/07/20 06:04:00;;;;;;;16.97;10.40;;;21.40;94.40;;;;;;4375591;32;20175;-61
2021/07/20 06:06:27;;;;;;;15.20;9.97;;;20.70;96.40;;;;;;4374231;32;20610;-59
2021/07/20 06:08:55;;;;;;;16.77;9.77;;;20.00;97.20;;;;;;4371621;32;20239;-61
2021/07/20 06:11:25;;;;;;;13.30;9.63;;;19.40;98.60;;;;;;4374442;32;20176;-60
2021/07/20 06:13:53;;;;;;;14.13;9.80;;;18.90;99.90;;;;;;4373911;32;20179;-58
2021/07/20 06:16:22;;;;;;;15.63;9.10;;;18.60;99.90;;;;;;4374875;32;20164;-60
2021/07/20 06:18:49;;;;;;;13.87;9.50;;;18.50;99.90;;;;;;4372318;32;20157;-60
2021/07/20 06:21:20;;;;;;;20.50;9.60;;;18.30;99.90;;;;;;4373915;32;20185;-60
2021/07/20 06:23:49;;;;;;;13.70;9.10;;;18.30;99.90;;;;;;4373782;32;20184;-60
2021/07/20 06:26:18;;;;;;;14.63;9.27;;;18.30;99.90;;;;;;4373489;32;20639;-60
2021/07/20 06:28:47;;;;;;;11.87;7.70;;;18.20;99.90;;;;;;4373240;32;20199;-59
2021/07/20 06:31:20;;;;;;;11.63;7.27;;;18.10;99.90;;;;;;4373935;32;20203;-61
2021/07/20 06:33:49;;;;;;;11.50;8.83;;;18.10;99.90;;;;;;4372560;32;20184;-60
2021/07/20 06:36:22;;;;;;;11.20;7.57;;;18.10;99.90;;;;;;4372726;32;20192;-59
2021/07/20 06:38:54;;;;;;;16.63;8.40;;;18.10;99.90;;;;;;4372329;32;20515;-59
2021/07/20 06:41:21;;;;;;;14.83;8.40;;;18.20;99.90;;;;;;4374213;32;20186;-59
2021/07/20 06:43:49;;;;;;;12.80;8.73;;;18.30;99.90;;;;;;4374826;32;20179;-59
2021/07/20 06:46:17;;;;;;;10.90;7.57;;;18.40;99.90;;;;;;4375131;32;20165;-60
2021/07/20 06:48:46;;;;;;;12.37;8.27;;;18.30;99.90;;;;;;4373103;32;20615;-59
2021/07/20 06:51:13;;;;;;;12.03;7.83;;;18.40;99.90;;;;;;4375547;32;20204;-59
2021/07/20 06:53:40;;;;;;;15.47;8.80;;;18.50;99.90;;;;;;4374969;32;20176;-60
2021/07/20 06:56:11;;;;;;;9.37;7.20;;;18.50;99.90;;;;;;4374782;32;20208;-59
2021/07/20 06:58:40;;;;;;;11.50;8.23;;;18.70;99.90;;;;;;4374273;32;20227;-60
2021/07/20 07:01:10;;;;;;;10.50;7.83;;;18.70;99.90;;;;;;4373777;32;20229;-59
2021/07/20 07:03:42;;;;;;;12.57;7.80;;;18.70;99.90;;;;;;4374195;32;20160;-59
2021/07/20 07:06:11;;;;;;;11.10;7.97;;;18.80;99.90;;;;;;4373669;32;20164;-59
2021/07/20 07:08:38;;;;;;;11.33;6.73;;;18.80;99.90;;;;;;4374525;32;20220;-59
2021/07/20 07:11:06;;;;;;;11.93;7.73;;;18.90;99.90;;;;;;4372734;32;20176;-59
2021/07/20 07:13:35;;;;;;;8.53;6.83;;;19.10;99.90;;;;;;4375140;32;20199;-60
2021/07/20 07:16:04;;;;;;;10.53;6.90;;;19.20;99.90;;;;;;4375354;32;20167;-60
2021/07/20 07:18:32;;;;;;;10.67;7.13;;;19.20;99.90;;;;;;4376644;32;20584;-60
2021/07/20 07:21:00;;;;;;;8.67;6.60;;;19.30;99.90;;;;;;4364725;32;20157;-60
2021/07/20 07:23:29;;;;;;;8.67;6.20;;;19.30;99.40;;;;;;4360341;33;20160;-60
2021/07/20 07:25:59;;;;;;;8.73;6.23;;;19.50;98.80;;;;;;4360039;33;20210;-60
2021/07/20 07:28:27;;;;;;;9.80;7.23;;;19.80;98.30;;;;;;4359422;33;20153;-60
2021/07/20 07:30:54;;;;;;;10.03;7.23;;;20.00;98.60;;;;;;4362721;32;20195;-60
2021/07/20 07:33:22;;;;;;;9.27;6.53;;;20.20;98.00;;;;;;4373308;32;20572;-60
2021/07/20 07:35:51;;;;;;;10.67;6.80;;;20.50;97.40;;;;;;4373966;32;20194;-59
2021/07/20 07:38:21;;;;;;;10.03;6.47;;;20.50;97.30;;;;;;4374350;32;20536;-60
2021/07/20 07:40:50;;;;;;;10.03;6.53;;;20.40;96.20;;;;;;4373043;32;20160;-59
2021/07/20 07:43:19;;;;;;;8.40;5.93;;;20.70;96.50;;;;;;4376201;32;20152;-59
2021/07/20 07:45:49;;;;;;;9.30;6.63;;;21.00;96.30;;;;;;4377928;32;20175;-59
2021/07/20 07:48:16;;;;;;;10.60;6.77;;;21.30;95.10;;;;;;4378584;32;20184;-59
2021/07/20 07:50:43;;;;;;;10.23;6.77;;;21.40;95.30;;;;;;4374042;32;20220;-64
2021/07/20 07:53:12;;;;;;;8.90;7.03;;;21.30;95.50;;;;;;4363740;32;20163;-60
2021/07/20 07:55:39;;;;;;;8.57;6.03;;;21.30;95.70;;;;;;4362492;33;20183;-60
2021/07/20 07:58:06;;;;;;;11.37;6.73;;;21.40;95.20;;;;;;4362757;33;20573;-60
2021/07/20 08:00:34;;;;;;;11.30;6.50;;;21.60;95.70;;;;;;4364157;32;20187;-60
2021/07/20 08:03:03;;;;;;;9.83;6.53;;;22.50;94.30;;;;;;4362732;33;20231;-62
2021/07/20 08:05:30;;;;;;;8.53;5.90;;;23.50;92.30;;;;;;4362474;33;20153;-61
2021/07/20 08:07:58;;;;;;;10.37;6.70;;;24.40;91.70;;;;;;4363048;32;20149;-61
2021/07/20 08:10:29;;;;;;;8.93;6.30;;;24.70;91.00;;;;;;4363601;32;20203;-61
2021/07/20 08:12:58;;;;;;;9.47;6.03;;;26.20;89.40;;;;;;4375455;32;20179;-59
2021/07/20 08:15:25;;;;;;;10.35;6.80;;;28.50;84.50;;;;;;4377512;32;20207;-59
2021/07/20 08:17:54;;;;;;;8.77;6.18;;;33.30;70.20;;;;;;4378523;32;20148;-60
2021/07/20 08:20:22;;;;;;;7.40;5.78;;;38.50;55.70;;;;;;4377493;32;20175;-61
2021/07/20 08:22:49;;;;;;;8.55;5.70;;;41.10;44.80;;;;;;4375297;32;20156;-62
2021/07/20 08:25:25;;;;;;;7.35;5.47;;;43.70;40.30;;;;;;4377263;32;20206;-62
2021/07/20 08:28:03;;;;;;;7.43;5.72;;;45.50;38.10;;;;;;4377452;32;20170;-62
2021/07/20 08:30:34;;;;;;;6.18;5.53;;;46.80;36.60;;;;;;4366828;32;20175;-62
2021/07/20 08:33:02;;;;;;;8.30;5.62;;;47.30;34.30;;;;;;4362706;32;20182;-60
2021/07/20 08:35:31;;;;;;;9.00;5.60;;;48.10;33.70;;;;;;4362548;32;20579;-60
2021/07/20 08:38:03;;;;;;;6.75;5.22;;;48.60;32.90;;;;;;4362043;33;20535;-61
2021/07/20 08:40:46;;;;;;;7.10;6.20;;;49.50;32.50;;;;;;4370984;32;20614;-60
2021/07/20 08:43:28;;;;;;;7.22;6.35;;;49.40;31.30;;;;;;4381249;32;20190;-60
2021/07/20 08:46:09;;;;;;;6.78;6.03;;;49.30;30.70;;;;;;4388630;32;20160;-60
2021/07/20 08:48:44;;;;;;;6.85;5.80;;;49.00;31.10;;;;;;4375442;32;20214;-60
2021/07/20 08:51:16;;;;;;;7.10;5.65;;;48.90;30.70;;;;;;4374509;32;20245;-60
2021/07/20 08:53:54;;;;;;;6.95;6.25;;;48.70;30.50;;;;;;4376161;32;20218;-61
2021/07/20 08:56:23;;;;;;;7.30;6.30;;;47.90;30.90;;;;;;4374649;32;20164;-60
2021/07/20 08:58:56;;;;;;;5.70;5.20;;;47.90;31.10;;;;;;4376304;32;20678;-60
2021/07/20 09:01:26;;;;;;;6.35;5.75;;;49.50;31.10;;;;;;4374649;32;20164;-60
2021/07/20 09:04:00;;;;;;;9.13;6.40;;;50.40;30.40;;;;;;4375371;32;20148;-60
2021/07/20 09:06:29;;;;;;;7.60;6.22;;;50.40;30.90;;;;;;4376999;32;20231;-61
2021/07/20 09:09:02;;;;;;;8.98;6.80;;;50.30;30.10;;;;;;4376402;32;20642;-60
2021/07/20 09:11:38;;;;;;;8.52;6.30;;;49.40;29.80;;;;;;4367887;32;20450;-60
2021/07/20 09:14:14;;;;;;;9.38;6.53;;;49.00;29.70;;;;;;4371316;32;20210;-62
2021/07/20 09:16:45;;;;;;;7.53;6.57;;;46.10;31.40;;;;;;4377367;32;20599;-62
2021/07/20 09:19:16;;;;;;;7.45;6.72;;;44.80;30.80;;;;;;4376545;32;20167;-61
2021/07/20 09:21:46;;;;;;;9.75;6.55;;;44.60;32.20;;;;;;4375062;32;20469;-60
2021/07/20 09:24:16;;;;;;;8.90;6.10;;;42.10;33.20;;;;;;4376908;32;20179;-61
2021/07/20 09:26:48;;;;;;;9.38;6.78;;;41.60;34.00;;;;;;4376655;32;20148;-61
2021/07/20 09:29:22;;;;;;;8.25;6.35;;;40.70;33.70;;;;;;4376266;32;20214;-61
2021/07/20 09:32:05;;;;;;;9.15;6.95;;;42.90;34.00;;;;;;4374713;32;20171;-61
2021/07/20 09:34:46;;;;;;;8.32;6.25;;;43.50;32.90;;;;;;4376956;32;20464;-61
2021/07/20 09:37:21;;;;;;;8.25;6.37;;;44.00;32.40;;;;;;4376237;32;20170;-60
2021/07/20 09:39:54;;;;;;;11.77;6.18;;;44.30;32.10;;;;;;4377639;32;20152;-61
2021/07/20 09:42:37;;;;;;;7.07;6.15;;;45.80;31.60;;;;;;4374586;32;20157;-61
2021/07/20 09:45:09;;;;;;;6.95;6.25;;;46.80;30.90;;;;;;4376167;32;20568;-61
2021/07/20 09:47:54;;;;;;;7.10;6.25;;;47.10;31.00;;;;;;4376152;32;20168;-62
2021/07/20 09:50:23;;;;;;;12.13;7.22;;;42.80;31.40;;;;;;4376132;32;20148;-60
2021/07/20 09:53:20;;;;;;;7.75;6.65;;;37.50;35.90;;;;;;4373829;32;20179;-59
2021/07/20 09:56:08;;;;;;;11.10;7.78;;;34.50;38.70;;;;;;4376033;32;20199;-60
2021/07/20 09:58:41;;;;;;;9.82;7.12;;;31.00;41.70;;;;;;4376212;32;20171;-61
2021/07/20 10:01:17;;;;;;;11.05;7.78;;;29.60;44.40;;;;;;4368771;32;20195;-59
2021/07/20 10:03:54;;;;;;;8.00;6.43;;;28.40;45.80;;;;;;4362135;32;20198;-59
2021/07/20 10:06:29;;;;;;;10.85;6.90;;;28.30;46.60;;;;;;4360433;32;20161;-60
2021/07/20 10:08:59;;;;;;;12.25;8.50;;;28.50;47.60;;;;;;4360884;33;20548;-60
2021/07/20 10:11:31;;;;;;;10.50;7.80;;;28.40;46.20;;;;;;4363254;32;20164;-61
2021/07/20 10:14:16;;;;;;;9.15;7.28;;;27.70;47.20;;;;;;4361749;32;20675;-61
2021/07/20 10:16:55;;;;;;;9.82;7.45;;;27.10;49.50;;;;;;4362100;32;20652;-61
2021/07/20 10:19:32;;;;;;;10.10;7.10;;;26.80;50.40;;;;;;4360788;33;20199;-60
2021/07/20 10:22:01;;;;;;;11.38;8.25;;;26.80;51.60;;;;;;4363440;32;20644;-60
2021/07/20 10:24:32;;;;;;;10.15;7.10;;;26.90;50.40;;;;;;4360799;33;20203;-61
2021/07/20 10:27:04;;;;;;;11.15;7.32;;;26.70;50.90;;;;;;4361047;32;20203;-61
2021/07/20 10:29:42;;;;;;;10.07;7.37;;;26.30;51.20;;;;;;4360791;33;20183;-62
2021/07/20 10:32:15;;;;;;;9.98;7.50;;;26.00;51.60;;;;;;4369439;32;20216;-62
2021/07/20 10:34:46;;;;;;;12.07;8.45;;;25.70;52.60;;;;;;4375702;32;20560;-62
2021/07/20 10:37:17;;;;;;;13.48;8.73;;;25.70;52.90;;;;;;4376865;32;20208;-62
2021/07/20 10:39:51;;;;;;;9.98;7.37;;;25.60;53.30;;;;;;4375557;32;20164;-62
2021/07/20 10:42:23;;;;;;;12.63;8.65;;;25.70;53.90;;;;;;4373611;32;20179;-61
2021/07/20 10:44:58;;;;;;;11.95;8.68;;;26.30;53.70;;;;;;4375579;32;20144;-62
2021/07/20 10:47:32;;;;;;;10.57;7.72;;;26.70;53.30;;;;;;4375552;32;20148;-61
2021/07/20 10:50:04;;;;;;;10.50;7.62;;;26.20;53.20;;;;;;4375293;32;20467;-62
2021/07/20 10:52:46;;;;;;;11.10;8.30;;;25.80;54.90;;;;;;4373456;32;20160;-62
2021/07/20 10:55:21;;;;;;;12.63;8.52;;;25.40;54.40;;;;;;4375964;32;20167;-62
2021/07/20 10:57:57;;;;;;;11.32;8.23;;;24.20;56.90;;;;;;4377141;32;20531;-62
2021/07/20 11:00:28;;;;;;;11.30;7.78;;;24.30;57.90;;;;;;4374987;32;20164;-62
2021/07/20 11:03:09;;;;;;;11.43;7.72;;;24.50;55.90;;;;;;4366852;32;20619;-63
2021/07/20 11:05:40;;;;;;;13.43;7.70;;;24.40;56.00;;;;;;4360814;33;20152;-62
2021/07/20 11:08:09;;;;;;;10.73;7.45;;;24.30;56.10;;;;;;4360392;33;20513;-63
2021/07/20 11:10:40;;;;;;;9.45;6.70;;;24.50;58.10;;;;;;4361155;33;20163;-63
2021/07/20 11:13:11;;;;;;;9.82;7.30;;;24.50;55.80;;;;;;4362676;32;20169;-63
2021/07/20 11:15:40;;;;;;;10.68;7.50;;;24.60;58.30;;;;;;4360033;33;20153;-62
2021/07/20 11:18:12;;;;;;;10.65;8.05;;;24.60;57.20;;;;;;4360934;32;20157;-62
2021/07/20 11:20:41;;;;;;;11.63;7.18;;;24.50;56.60;;;;;;4363217;32;20263;-63
2021/07/20 11:23:09;;;;;;;11.65;8.05;;;24.40;58.00;;;;;;4366686;32;20625;-62
2021/07/20 11:25:38;;;;;;;11.95;7.55;;;24.10;57.10;;;;;;4363231;33;20213;-62
2021/07/20 11:28:06;;;;;;;10.40;8.07;;;24.30;57.30;;;;;;4363248;33;20587;-63
2021/07/20 11:30:36;;;;;;;9.75;8.20;;;24.20;59.60;;;;;;4364386;32;20576;-62
2021/07/20 11:33:06;;;;;;;11.93;8.00;;;24.50;58.60;;;;;;4365388;32;20191;-63
2021/07/20 11:35:40;;;;;;;9.95;7.97;;;24.60;58.10;;;;;;4364719;32;20537;-62
2021/07/20 11:38:10;;;;;;;10.25;7.53;;;24.50;58.10;;;;;;4363179;33;20224;-62
2021/07/20 11:40:45;;;;;;;9.80;7.53;;;24.40;57.10;;;;;;4363108;32;20148;-62
2021/07/20 11:43:17;;;;;;;9.77;7.18;;;24.40;57.70;;;;;;4364997;32;20152;-62
2021/07/20 11:45:53;;;;;;;10.48;7.68;;;24.60;59.00;;;;;;4363822;32;20172;-62
2021/07/20 11:48:20;;;;;;;10.93;8.77;;;24.80;58.80;;;;;;4363714;32;20170;-62
2021/07/20 11:51:00;;;;;;;10.40;7.65;;;24.80;58.60;;;;;;4363401;32;20195;-62
2021/07/20 11:53:35;;;;;;;10.75;8.00;;;24.80;58.50;;;;;;4364599;32;20585;-62
2021/07/20 11:56:15;;;;;;;9.95;7.40;;;24.40;56.20;;;;;;4363202;32;20174;-62
2021/07/20 11:59:22;;;;;;;12.25;8.77;;;24.50;58.10;;;;;;4362779;33;20200;-61
2021/07/20 12:02:25;;;;;;;9.85;7.68;;;24.30;57.50;;;;;;4362896;32;20176;-61
2021/07/20 12:05:07;;;;;;;9.33;7.90;;;24.60;60.00;;;;;;4362578;32;20211;-63
2021/07/20 12:07:43;;;;;;;12.13;8.23;;;24.40;58.30;;;;;;4362852;32;20487;-62
2021/07/20 12:10:43;;;;;;;11.73;8.25;;;24.60;58.10;;;;;;4362660;32;20250;-61
2021/07/20 12:13:18;;;;;;;9.68;7.60;;;24.60;59.10;;;;;;4363993;32;20247;-61
2021/07/20 12:15:52;;;;;;;11.52;8.35;;;24.50;60.30;;;;;;4362530;32;20152;-61
2021/07/20 12:18:23;;;;;;;10.07;8.10;;;24.60;59.70;;;;;;4362509;32;20587;-63
2021/07/20 12:20:51;;;;;;;11.23;8.52;;;24.20;60.80;;;;;;4365865;32;20230;-62
2021/07/20 12:23:22;;;;;;;11.03;9.03;;;24.20;59.60;;;;;;4363276;32;20226;-62
2021/07/20 12:25:59;;;;;;;10.00;8.70;;;24.30;60.40;;;;;;4363647;32;20191;-62
2021/07/20 12:28:31;;;;;;;9.98;8.27;;;24.00;58.80;;;;;;4364055;32;20230;-63
2021/07/20 12:31:01;;;;;;;12.35;9.60;;;24.10;61.20;;;;;;4363812;32;20791;-60
2021/07/20 12:33:33;;;;;;;12.77;9.30;;;24.10;61.60;;;;;;4365564;32;20200;-63
2021/07/20 12:36:00;;;;;;;11.77;9.02;;;24.30;61.10;;;;;;4365757;32;20246;-61
2021/07/20 12:38:33;;;;;;;12.10;8.55;;;24.40;61.90;;;;;;4365894;32;20187;-62
2021/07/20 12:41:07;;;;;;;11.10;8.63;;;24.30;61.30;;;;;;4367297;32;20234;-62
2021/07/20 12:43:34;;;;;;;11.05;8.40;;;24.40;61.30;;;;;;4368722;32;20171;-62
2021/07/20 12:46:11;;;;;;;12.32;9.13;;;24.50;59.80;;;;;;4364010;32;20157;-61
2021/07/20 12:48:46;;;;;;;11.90;8.57;;;23.90;59.30;;;;;;4362588;32;20160;-62
2021/07/20 12:51:15;;;;;;;10.48;9.00;;;24.10;63.00;;;;;;4362211;32;20148;-63
2021/07/20 12:53:45;;;;;;;13.05;9.30;;;24.20;61.20;;;;;;4362188;32;20605;-62
2021/07/20 12:56:13;;;;;;;12.73;9.57;;;24.30;61.80;;;;;;4374240;32;20190;-61